createdAt,value
2024-04-17T00:01:38.979Z,97795.03
2024-04-17T00:04:06.065Z,97798.34
2024-04-17T00:06:32.865Z,97796.41
2024-04-17T00:08:59.784Z,97779.91
2024-04-17T00:11:26.442Z,97763.63
2024-04-17T00:13:53.387Z,97762.13
2024-04-17T00:16:20.106Z,97760.94
2024-04-17T00:18:46.658Z,97756.84
2024-04-17T00:21:13.701Z,97747.09
2024-04-17T00:23:41.398Z,97747.38
2024-04-17T00:26:08.017Z,97743.81
2024-04-17T00:28:34.642Z,97753.59
2024-04-17T00:31:03.606Z,97744.22
2024-04-17T00:33:31.978Z,97746.41
2024-04-17T00:35:59.062Z,97753.00
2024-04-17T00:38:25.755Z,97735.94
2024-04-17T00:40:52.542Z,97731.72
2024-04-17T00:43:19.201Z,97725.63
2024-04-17T00:45:45.777Z,97717.09
2024-04-17T00:48:13.564Z,97724.47
2024-04-17T00:50:40.550Z,97732.66
2024-04-17T00:53:07.328Z,97725.31
2024-04-17T00:55:34.011Z,97723.03
2024-04-17T00:58:00.713Z,97719.63
2024-04-17T01:00:29.837Z,97733.53
2024-04-17T01:02:56.646Z,97736.78
2024-04-17T01:05:23.576Z,97731.09
2024-04-17T01:07:50.225Z,97736.13
2024-04-17T01:10:16.787Z,97735.19
2024-04-17T01:12:43.411Z,97731.38
2024-04-17T01:15:09.992Z,97730.34
2024-04-17T01:17:36.796Z,97739.81
2024-04-17T01:20:04.634Z,97735.59
2024-04-17T01:22:32.385Z,97744.25
2024-04-17T01:24:59.436Z,97739.38
2024-04-17T01:27:26.043Z,97733.28
2024-04-17T01:29:53.375Z,97735.97
2024-04-17T01:32:19.968Z,97734.25
2024-04-17T01:34:47.678Z,97734.53
2024-04-17T01:37:14.283Z,97738.13
2024-04-17T01:39:40.869Z,97727.22
2024-04-17T01:42:07.746Z,97730.50
2024-04-17T01:44:34.561Z,97728.47
2024-04-17T01:47:01.414Z,97732.66
2024-04-17T01:49:28.304Z,97737.59
2024-04-17T01:51:54.921Z,97728.34
2024-04-17T01:54:21.530Z,97730.44
2024-04-17T01:56:48.620Z,97718.16
2024-04-17T01:59:15.958Z,97732.44
2024-04-17T02:01:42.673Z,97724.97
2024-04-17T02:04:09.335Z,97731.41
2024-04-17T02:06:36.056Z,97733.34
2024-04-17T02:09:02.699Z,97728.50
2024-04-17T02:11:29.294Z,97734.59
2024-04-17T02:13:55.993Z,97730.53
2024-04-17T02:16:22.622Z,97734.94
2024-04-17T02:18:49.252Z,97727.50
2024-04-17T02:21:15.949Z,97734.88
2024-04-17T02:23:42.579Z,97725.69
2024-04-17T02:26:13.261Z,97731.13
2024-04-17T02:28:40.250Z,97716.06
2024-04-17T02:31:06.995Z,97732.88
2024-04-17T02:33:33.658Z,97733.41
2024-04-17T02:36:01.286Z,97728.28
2024-04-17T02:38:28.196Z,97726.84
2024-04-17T02:40:54.946Z,97724.75
2024-04-17T02:43:21.639Z,97722.34
2024-04-17T02:45:49.282Z,97727.44
2024-04-17T02:48:15.916Z,97715.75
2024-04-17T02:50:42.553Z,97723.00
2024-04-17T02:53:09.260Z,97726.69
2024-04-17T02:55:36.031Z,97722.09
2024-04-17T02:58:02.679Z,97725.53
2024-04-17T03:00:29.455Z,97726.25
2024-04-17T03:02:56.325Z,97722.03
2024-04-17T03:05:23.177Z,97732.84
2024-04-17T03:07:49.852Z,97729.47
2024-04-17T03:10:17.799Z,97727.38
2024-04-17T03:12:44.472Z,97735.88
2024-04-17T03:15:13.477Z,97738.47
2024-04-17T03:17:40.800Z,97740.78
2024-04-17T03:20:09.967Z,97734.59
2024-04-17T03:22:36.781Z,97742.91
2024-04-17T03:25:03.417Z,97750.97
2024-04-17T03:27:30.028Z,97738.34
2024-04-17T03:29:56.728Z,97742.88
2024-04-17T03:32:23.294Z,97747.69
2024-04-17T03:34:49.963Z,97740.78
2024-04-17T03:37:22.082Z,97737.56
2024-04-17T03:39:49.355Z,97746.88
2024-04-17T03:42:17.373Z,97742.44
2024-04-17T03:44:45.305Z,97744.88
2024-04-17T03:47:12.353Z,97748.03
2024-04-17T03:49:39.049Z,97735.94
2024-04-17T03:52:05.988Z,97737.84
2024-04-17T03:54:32.744Z,97741.56
2024-04-17T03:57:01.880Z,97755.88
2024-04-17T03:59:28.446Z,97764.03
2024-04-17T04:01:55.386Z,97766.38
2024-04-17T04:04:22.092Z,97767.13
2024-04-17T04:06:52.489Z,97772.56
2024-04-17T04:09:19.832Z,97768.78
2024-04-17T04:11:46.479Z,97773.41
2024-04-17T04:14:13.499Z,97783.97
2024-04-17T04:16:40.167Z,97781.84
2024-04-17T04:19:07.385Z,97783.53
2024-04-17T04:21:34.296Z,97797.06
2024-04-17T04:24:01.207Z,97796.97
2024-04-17T04:26:27.850Z,97804.47
2024-04-17T04:28:54.509Z,97830.59
2024-04-17T04:31:21.158Z,97816.06
2024-04-17T04:33:47.831Z,97821.13
2024-04-17T04:36:14.574Z,97818.41
2024-04-17T04:38:41.159Z,97824.84
2024-04-17T04:41:10.208Z,97825.53
2024-04-17T04:43:36.777Z,97827.56
2024-04-17T04:46:03.384Z,97826.44
2024-04-17T04:48:30.081Z,97830.13
2024-04-17T04:50:56.754Z,97822.72
2024-04-17T04:53:23.315Z,97824.38
2024-04-17T04:55:50.344Z,97830.56
2024-04-17T04:58:16.889Z,97823.38
2024-04-17T05:00:43.694Z,97832.72
2024-04-17T05:03:10.411Z,97823.66
2024-04-17T05:05:37.499Z,97826.25
2024-04-17T05:08:04.144Z,97823.38
2024-04-17T05:10:30.954Z,97837.97
2024-04-17T05:12:57.731Z,97831.19
2024-04-17T05:15:24.334Z,97840.94
2024-04-17T05:17:51.179Z,97835.94
2024-04-17T05:20:17.836Z,97828.91
2024-04-17T05:22:44.526Z,97828.16
2024-04-17T05:25:11.237Z,97826.88
2024-04-17T05:27:37.856Z,97830.59
2024-04-17T05:30:05.460Z,97826.25
2024-04-17T05:32:32.080Z,97826.69
2024-04-17T05:34:58.828Z,97836.00
2024-04-17T05:37:26.413Z,97833.66
2024-04-17T05:39:53.541Z,97817.00
2024-04-17T05:42:20.199Z,97821.88
2024-04-17T05:44:46.715Z,97824.59
2024-04-17T05:47:13.809Z,97827.13
2024-04-17T05:49:40.724Z,97833.31
2024-04-17T05:52:07.274Z,97821.13
2024-04-17T05:54:33.846Z,97825.69
2024-04-17T05:57:01.531Z,97824.41
2024-04-17T06:05:09.811Z,97827.59
2024-04-17T06:07:39.625Z,97829.47
2024-04-17T06:10:06.383Z,97835.16
2024-04-17T06:12:33.003Z,97844.03
2024-04-17T06:14:59.548Z,97840.97
2024-04-17T06:17:26.217Z,97850.53
2024-04-17T06:19:53.116Z,97843.88
2024-04-17T06:22:22.852Z,97848.25
2024-04-17T06:24:49.420Z,97839.63
2024-04-17T06:27:20.936Z,97849.84
2024-04-17T06:29:47.526Z,97859.31
2024-04-17T06:32:14.909Z,97849.16
2024-04-17T06:34:41.967Z,97855.31
2024-04-17T06:42:48.540Z,97866.97
2024-04-17T06:45:15.580Z,97862.38
2024-04-17T06:47:42.401Z,97861.28
2024-04-17T06:50:09.558Z,97863.97
2024-04-17T06:52:36.235Z,97864.03
2024-04-17T06:55:05.300Z,97861.44
2024-04-17T06:57:31.888Z,97855.31
2024-04-17T07:00:01.196Z,97857.94
2024-04-17T07:02:27.903Z,97861.50
2024-04-17T07:04:54.578Z,97853.50
2024-04-17T07:07:21.204Z,97852.09
2024-04-17T07:09:47.991Z,97857.00
2024-04-17T07:12:15.034Z,97859.63
2024-04-17T07:14:41.666Z,97862.97
2024-04-17T07:17:09.552Z,97861.00
2024-04-17T07:19:36.543Z,97859.75
2024-04-17T07:22:03.764Z,97865.00
2024-04-17T07:24:31.551Z,97859.06
2024-04-17T07:26:58.499Z,97869.56
2024-04-17T07:29:25.092Z,97854.59
2024-04-17T07:31:52.148Z,97865.00
2024-04-17T07:34:19.194Z,97878.09
2024-04-17T07:36:46.961Z,97856.50
2024-04-17T07:39:14.002Z,97864.03
2024-04-17T07:41:41.022Z,97860.59
2024-04-17T07:44:07.994Z,97858.78
2024-04-17T07:46:34.617Z,97855.81
2024-04-17T07:49:01.686Z,97851.00
2024-04-17T07:51:28.375Z,97854.06
2024-04-17T08:05:13.205Z,97863.31
2024-04-17T08:07:40.996Z,97856.06
2024-04-17T08:10:07.717Z,97859.41
2024-04-17T08:12:36.439Z,97862.19
2024-04-17T08:15:03.691Z,97863.94
2024-04-17T08:17:30.534Z,97866.44
2024-04-17T08:19:57.317Z,97860.66
2024-04-17T08:22:24.058Z,97866.44
2024-04-17T08:24:50.755Z,97873.31
2024-04-17T08:27:17.330Z,97869.31
2024-04-17T08:29:44.569Z,97870.75
2024-04-17T08:32:12.271Z,97877.28
2024-04-17T08:34:39.059Z,97879.03
2024-04-17T08:37:05.729Z,97883.25
2024-04-17T08:39:32.329Z,97877.56
2024-04-17T08:41:58.967Z,97871.72
2024-04-17T08:44:27.982Z,97876.09
2024-04-17T08:46:55.522Z,97877.59
2024-04-17T08:49:22.327Z,97868.75
2024-04-17T08:51:49.908Z,97878.81
2024-04-17T08:54:16.505Z,97880.28
2024-04-17T08:56:43.148Z,97867.91
2024-04-17T08:59:09.866Z,97869.56
2024-04-17T09:01:36.524Z,97867.16
2024-04-17T09:04:03.640Z,97864.53
2024-04-17T09:06:30.300Z,97872.09
2024-04-17T09:08:56.867Z,97872.81
2024-04-17T09:11:24.708Z,97871.56
2024-04-17T09:13:51.356Z,97876.31
2024-04-17T09:16:17.944Z,97878.41
2024-04-17T09:18:46.000Z,97885.13
2024-04-17T09:21:12.625Z,97883.03
2024-04-17T09:23:39.351Z,97890.19
2024-04-17T09:26:07.431Z,97887.75
2024-04-17T09:28:34.124Z,97886.91
2024-04-17T09:31:01.115Z,97882.69
2024-04-17T09:33:27.708Z,97889.53
2024-04-17T09:35:56.182Z,97894.09
2024-04-17T09:38:25.433Z,97907.13
2024-04-17T09:40:52.036Z,97925.78
2024-04-17T09:43:22.541Z,97928.50
2024-04-17T09:45:54.880Z,97928.38
2024-04-17T09:48:22.736Z,97915.78
2024-04-17T09:50:49.388Z,97917.53
2024-04-17T09:53:27.838Z,97920.69
2024-04-17T09:56:03.621Z,97920.47
2024-04-17T09:58:30.263Z,97922.94
2024-04-17T10:00:57.884Z,97905.09
2024-04-17T10:03:24.638Z,97900.78
2024-04-17T10:05:51.250Z,97911.78
2024-04-17T10:08:18.036Z,97905.84
2024-04-17T10:10:44.701Z,97908.09
2024-04-17T10:13:11.354Z,97910.25
2024-04-17T10:15:37.958Z,97917.00
2024-04-17T10:18:04.856Z,97904.69
2024-04-17T10:20:31.970Z,97909.47
2024-04-17T10:23:01.418Z,97900.75
2024-04-17T10:27:57.998Z,97894.72
2024-04-17T10:30:26.170Z,97891.84
2024-04-17T10:32:55.646Z,97889.34
2024-04-17T10:35:22.593Z,97895.25
2024-04-17T10:37:52.876Z,97893.72
2024-04-17T10:40:20.452Z,97893.66
2024-04-17T10:42:47.250Z,97910.53
2024-04-17T10:45:13.871Z,97897.94
2024-04-17T10:47:40.539Z,97893.94
2024-04-17T10:50:07.365Z,97892.78
2024-04-17T10:52:34.207Z,97887.31
2024-04-17T10:55:01.220Z,97886.47
2024-04-17T10:57:28.202Z,97885.66
2024-04-17T10:59:55.078Z,97888.50
2024-04-17T11:02:21.637Z,97881.44
2024-04-17T11:04:48.224Z,97876.19
2024-04-17T11:07:22.532Z,97871.28
2024-04-17T11:09:52.710Z,97876.00
2024-04-17T11:12:19.786Z,97868.63
2024-04-17T11:14:46.403Z,97874.81
2024-04-17T11:17:13.382Z,97860.19
2024-04-17T11:19:41.345Z,97867.56
2024-04-17T11:22:07.955Z,97870.94
2024-04-17T11:24:34.569Z,97875.56
2024-04-17T11:27:01.435Z,97865.50
2024-04-17T11:29:34.059Z,97857.63
2024-04-17T11:32:07.905Z,97872.94
2024-04-17T11:34:34.544Z,97879.25
2024-04-17T11:37:04.332Z,97867.59
2024-04-17T11:39:32.955Z,97870.97
2024-04-17T11:42:00.935Z,97862.22
2024-04-17T11:50:10.772Z,97853.25
2024-04-17T11:52:37.813Z,97855.44
2024-04-17T11:55:04.457Z,97855.06
2024-04-17T11:57:31.614Z,97845.97
2024-04-17T11:59:58.404Z,97854.72
2024-04-17T12:02:24.949Z,97847.47
2024-04-17T12:04:51.708Z,97843.25
2024-04-17T12:07:18.395Z,97835.22
2024-04-17T12:09:45.025Z,97836.09
2024-04-17T12:12:11.913Z,97834.50
2024-04-17T12:14:38.502Z,97833.31
2024-04-17T12:17:05.129Z,97843.97
2024-04-17T12:19:31.783Z,97844.84
2024-04-17T12:21:58.344Z,97846.31
2024-04-17T12:24:25.286Z,97849.16
2024-04-17T12:26:52.869Z,97840.66
2024-04-17T12:29:20.059Z,97841.34
2024-04-17T12:31:54.519Z,97834.28
2024-04-17T12:34:22.575Z,97848.16
2024-04-17T12:36:49.442Z,97843.97
2024-04-17T12:39:16.851Z,97845.91
2024-04-17T12:41:43.538Z,97837.03
2024-04-17T12:44:10.208Z,97837.25
2024-04-17T12:46:37.083Z,97825.66
2024-04-17T12:49:07.243Z,97839.72
2024-04-17T12:51:34.815Z,97841.28
2024-04-17T12:54:01.437Z,97839.50
2024-04-17T12:56:30.609Z,97833.50
2024-04-17T12:58:57.323Z,97826.28
2024-04-17T13:01:24.024Z,97828.63
2024-04-17T13:03:50.734Z,97834.63
2024-04-17T13:06:22.904Z,97818.75
2024-04-17T13:08:51.284Z,97825.88
2024-04-17T13:14:18.383Z,97834.38
2024-04-17T13:16:45.602Z,97842.41
2024-04-17T13:19:12.551Z,97850.44
2024-04-17T13:21:40.114Z,97842.34
2024-04-17T13:24:07.417Z,97829.91
2024-04-17T13:26:34.271Z,97826.47
2024-04-17T13:29:00.893Z,97832.44
2024-04-17T13:31:27.563Z,97842.13
2024-04-17T13:33:54.194Z,97816.56
2024-04-17T13:36:21.074Z,97818.94
2024-04-17T13:38:47.750Z,97821.50
2024-04-17T13:41:14.662Z,97807.53
2024-04-17T13:43:41.800Z,97804.03
2024-04-17T13:46:08.731Z,97809.78
2024-04-17T13:48:35.835Z,97793.66
2024-04-17T13:51:02.539Z,97796.34
2024-04-17T13:53:32.440Z,97786.97
2024-04-17T13:55:59.415Z,97800.63
2024-04-17T13:58:26.027Z,97786.19
2024-04-17T14:00:52.821Z,97784.84
2024-04-17T14:03:19.726Z,97799.63
2024-04-17T14:05:46.369Z,97796.59
2024-04-17T14:08:13.178Z,97802.38
2024-04-17T14:10:40.153Z,97811.88
2024-04-17T14:13:08.871Z,97807.97
2024-04-17T14:15:39.479Z,97821.78
2024-04-17T14:18:07.346Z,97811.13
2024-04-17T14:20:34.069Z,97822.13
2024-04-17T14:23:01.111Z,97810.66
2024-04-17T14:25:27.767Z,97810.59
2024-04-17T14:27:54.452Z,97817.41
2024-04-17T14:30:23.546Z,97818.03
2024-04-17T14:32:50.240Z,97811.81
2024-04-17T14:35:17.185Z,97809.84
2024-04-17T14:37:44.420Z,97823.16
2024-04-17T14:40:12.094Z,97810.97
2024-04-17T14:42:38.756Z,97828.47
2024-04-17T14:45:08.012Z,97824.13
2024-04-17T14:47:35.366Z,97822.91
2024-04-17T14:50:02.303Z,97825.03
2024-04-17T14:55:21.064Z,97820.19
2024-04-17T14:57:47.881Z,97830.19
2024-04-17T15:00:14.528Z,97830.81
2024-04-17T15:02:41.109Z,97838.59
2024-04-17T15:05:15.277Z,97823.84
2024-04-17T15:07:42.767Z,97820.47
2024-04-17T15:10:09.666Z,97828.63
2024-04-17T15:12:36.357Z,97846.63
2024-04-17T15:15:06.038Z,97843.69
2024-04-17T15:17:32.887Z,97847.50
2024-04-17T15:20:00.863Z,97848.63
2024-04-17T15:22:27.439Z,97853.97
2024-04-17T15:24:55.071Z,97852.44
2024-04-17T15:27:21.670Z,97859.00
2024-04-17T15:32:32.819Z,97866.47
2024-04-17T15:34:59.737Z,97867.25
2024-04-17T15:37:31.504Z,97864.72
2024-04-17T15:39:59.623Z,97861.59
2024-04-17T15:42:26.469Z,97860.09
2024-04-17T15:44:54.343Z,97862.50
2024-04-17T15:47:23.569Z,97869.69
2024-04-17T15:49:51.887Z,97872.06
2024-04-17T15:52:19.002Z,97871.06
2024-04-17T15:54:46.732Z,97876.00
2024-04-17T15:57:13.788Z,97880.59
2024-04-17T15:59:40.553Z,97884.66
2024-04-17T16:02:10.237Z,97889.78
2024-04-17T16:04:37.005Z,97884.13
2024-04-17T16:07:06.301Z,97884.97
2024-04-17T16:09:33.095Z,97889.78
2024-04-17T16:12:01.039Z,97893.84
2024-04-17T16:14:27.631Z,97893.69
2024-04-17T16:16:54.508Z,97901.50
2024-04-17T16:19:21.310Z,97901.28
2024-04-17T16:21:48.242Z,97897.34
2024-04-17T16:24:14.978Z,97896.38
2024-04-17T16:26:41.623Z,97905.59
2024-04-17T16:29:08.467Z,97910.13
2024-04-17T16:31:35.161Z,97914.69
2024-04-17T16:39:39.206Z,97921.91
2024-04-17T16:42:06.642Z,97919.63
2024-04-17T16:44:33.242Z,97927.41
2024-04-17T16:46:59.993Z,97922.47
2024-04-17T16:49:27.717Z,97925.47
2024-04-17T16:51:54.950Z,97922.13
2024-04-17T16:54:21.850Z,97934.84
2024-04-17T16:56:48.646Z,97933.75
2024-04-17T16:59:16.401Z,97927.53
2024-04-17T17:01:43.032Z,97937.38
2024-04-17T17:04:09.897Z,97940.09
2024-04-17T17:06:39.444Z,97948.41
2024-04-17T17:09:07.098Z,97940.16
2024-04-17T17:11:33.938Z,97945.63
2024-04-17T17:14:01.614Z,97948.75
2024-04-17T17:16:28.633Z,97942.72
2024-04-17T17:18:55.512Z,97951.13
2024-04-17T17:21:22.269Z,97945.00
2024-04-17T17:23:49.947Z,97957.78
2024-04-17T17:26:17.649Z,97958.91
2024-04-17T17:28:44.409Z,97960.06
2024-04-17T17:31:11.226Z,97962.34
2024-04-17T17:33:38.463Z,97967.81
2024-04-17T17:36:06.183Z,97973.75
2024-04-17T17:38:35.614Z,97973.91
2024-04-17T17:41:05.246Z,97980.03
2024-04-17T17:43:31.820Z,97982.09
2024-04-17T17:45:58.564Z,97990.66
2024-04-17T17:48:25.452Z,97987.72
2024-04-17T17:50:52.263Z,97997.28
2024-04-17T17:53:19.300Z,97997.09
2024-04-17T17:55:46.871Z,97996.19
2024-04-17T18:01:00.430Z,98011.34
2024-04-17T18:03:27.887Z,98007.41
2024-04-17T18:05:55.635Z,98008.81
2024-04-17T18:08:22.535Z,98016.25
2024-04-17T18:10:49.566Z,98025.66
2024-04-17T18:13:16.340Z,98018.09
2024-04-17T18:15:43.215Z,98019.97
2024-04-17T18:18:10.184Z,98024.72
2024-04-17T18:20:37.051Z,98036.69
2024-04-17T18:23:03.852Z,98030.22
2024-04-17T18:25:30.569Z,98034.47
2024-04-17T18:27:58.088Z,98035.91
2024-04-17T18:30:25.187Z,98039.00
2024-04-17T18:32:52.036Z,98038.50
2024-04-17T18:35:19.060Z,98038.34
2024-04-17T18:37:45.822Z,98044.53
2024-04-17T18:40:12.793Z,98054.78
2024-04-17T18:42:39.527Z,98048.56
2024-04-17T18:45:06.360Z,98057.28
2024-04-17T18:47:33.139Z,98061.91
2024-04-17T18:49:59.972Z,98065.50
2024-04-17T18:52:29.443Z,98063.81
2024-04-17T18:54:56.424Z,98065.94
2024-04-17T19:00:04.272Z,98075.59
2024-04-17T19:02:33.740Z,98076.00
2024-04-17T19:05:00.638Z,98080.50
2024-04-17T19:07:27.710Z,98080.63
2024-04-17T19:09:55.562Z,98085.69
2024-04-17T19:12:22.275Z,98087.19
2024-04-17T19:14:49.854Z,98076.66
2024-04-17T19:17:16.548Z,98088.28
2024-04-17T19:19:43.278Z,98085.84
2024-04-17T19:22:10.049Z,98087.06
2024-04-17T19:24:38.083Z,98087.72
2024-04-17T19:27:05.167Z,98087.50
2024-04-17T19:29:46.227Z,98092.72
2024-04-17T19:32:18.854Z,98095.06
2024-04-17T19:34:45.743Z,98097.03
2024-04-17T19:37:12.734Z,98101.13
2024-04-17T19:39:43.950Z,98099.75
2024-04-17T19:42:15.100Z,98104.66
2024-04-17T19:44:48.404Z,98106.13
2024-04-17T19:47:15.160Z,98108.72
2024-04-17T19:49:41.879Z,98102.84
2024-04-17T19:52:11.435Z,98109.50
2024-04-17T19:54:40.011Z,98116.69
2024-04-17T19:57:07.042Z,98111.59
2024-04-17T19:59:35.721Z,98118.56
2024-04-17T20:02:03.241Z,98115.34
2024-04-17T20:04:31.360Z,98120.94
2024-04-17T20:06:58.643Z,98111.59
2024-04-17T20:09:26.238Z,98123.34
2024-04-17T20:11:53.692Z,98122.91
2024-04-17T20:14:20.544Z,98121.44
2024-04-17T20:16:48.011Z,98127.34
2024-04-17T20:19:14.971Z,98123.63
2024-04-17T20:21:44.164Z,98122.56
2024-04-17T20:24:10.927Z,98119.53
2024-04-17T20:26:38.460Z,98123.53
2024-04-17T20:29:07.781Z,98123.78
2024-04-17T20:31:35.275Z,98125.34
2024-04-17T20:34:02.047Z,98126.84
2024-04-17T20:36:28.989Z,98135.94
2024-04-17T20:38:55.805Z,98124.03
2024-04-17T20:41:22.884Z,98137.44
2024-04-17T20:43:49.606Z,98129.34
2024-04-17T20:46:16.375Z,98134.47
2024-04-17T20:48:43.549Z,98135.34
2024-04-17T20:51:10.355Z,98130.31
2024-04-17T20:53:37.794Z,98131.63
2024-04-17T20:56:05.319Z,98133.59
2024-04-17T20:58:32.155Z,98132.75
2024-04-17T21:00:59.263Z,98140.81
2024-04-17T21:03:26.060Z,98138.72
2024-04-17T21:05:52.720Z,98139.22
2024-04-17T21:08:19.461Z,98146.06
2024-04-17T21:10:46.145Z,98142.59
2024-04-17T21:13:12.784Z,98155.81
2024-04-17T21:15:41.182Z,98154.59
2024-04-17T21:18:10.531Z,98159.28
2024-04-17T21:20:38.228Z,98161.16
2024-04-17T21:23:07.877Z,98166.31
2024-04-17T21:25:36.233Z,98165.25
2024-04-17T21:28:03.542Z,98170.34
2024-04-17T21:30:30.162Z,98175.09
2024-04-17T21:32:59.415Z,98175.06
2024-04-17T21:35:27.097Z,98173.22
2024-04-17T21:37:54.248Z,98171.38
2024-04-17T21:40:22.472Z,98173.81
2024-04-17T21:42:52.408Z,98179.09
2024-04-17T21:45:19.318Z,98174.63
2024-04-17T21:47:46.597Z,98174.00
2024-04-17T21:53:04.245Z,98186.75
2024-04-17T21:55:30.924Z,98188.25
2024-04-17T21:57:58.608Z,98194.19
2024-04-17T22:00:25.610Z,98180.19
2024-04-17T22:02:52.684Z,98195.63
2024-04-17T22:05:22.300Z,98192.19
2024-04-17T22:07:48.959Z,98186.75
2024-04-17T22:10:15.570Z,98185.97
2024-04-17T22:12:42.721Z,98192.78
2024-04-17T22:15:09.762Z,98200.28
2024-04-17T22:17:38.385Z,98191.44
2024-04-17T22:20:04.944Z,98203.34
2024-04-17T22:22:31.783Z,98195.00
2024-04-17T22:24:58.763Z,98193.25
2024-04-17T22:27:26.430Z,98198.94
2024-04-17T22:29:53.353Z,98200.25
2024-04-17T22:32:20.014Z,98207.94
2024-04-17T22:34:46.880Z,98202.13
2024-04-17T22:37:13.523Z,98201.84
2024-04-17T22:39:51.974Z,98202.19
2024-04-17T22:42:19.257Z,98202.50
2024-04-17T22:44:46.389Z,98205.47
2024-04-17T22:47:13.063Z,98204.34
2024-04-17T22:49:42.995Z,98204.88
2024-04-17T22:52:09.714Z,98201.53
2024-04-17T22:54:36.633Z,98201.75
2024-04-17T22:57:03.793Z,98205.13
2024-04-17T22:59:30.378Z,98212.72
2024-04-17T23:01:59.292Z,98210.94
2024-04-17T23:04:26.134Z,98212.13
2024-04-17T23:06:52.985Z,98217.22
2024-04-17T23:09:22.111Z,98212.63
2024-04-17T23:11:48.855Z,98217.00
2024-04-17T23:14:16.098Z,98207.94
2024-04-17T23:16:45.153Z,98213.09
2024-04-17T23:19:17.048Z,98213.53
2024-04-17T23:21:50.367Z,98221.13
2024-04-17T23:24:17.190Z,98219.91
2024-04-17T23:26:44.182Z,98221.03
2024-04-17T23:29:10.830Z,98214.97
2024-04-17T23:31:37.481Z,98217.41
2024-04-17T23:34:04.118Z,98225.50
2024-04-17T23:36:30.831Z,98216.03
2024-04-17T23:38:59.230Z,98219.09
2024-04-17T23:41:25.972Z,98221.78
2024-04-17T23:43:53.547Z,98220.50
2024-04-17T23:46:22.645Z,98220.84
2024-04-17T23:48:49.710Z,98225.81
2024-04-17T23:51:18.899Z,98219.31
2024-04-17T23:53:48.789Z,98214.41
2024-04-17T23:56:15.753Z,98217.66
2024-04-17T23:58:42.379Z,98210.53
